Bodega Marine Reserve, California Weather observations

Data are for 10 minute period ending at time listed.
 Day   Time   Solar   Ave.   Ave.  Ave.  Vector  Max.   Baro.   Total    
  of    of     Rad.   Air    Rel.  Wind   Wind   Wind  Press.  Precip.   
Year   Day            Temp.  Hum.  Speed  Dir.   Gust                    
2017   (PST)  Kw/m2    F      %     mph   deg.    mph    mb.     in.     
-------------------------------------------------------------------------
 176   20:10   0.00   18.5     0   13.0   297    17.8   1012.9    0.00 
 176   20:20   0.00   18.9     1   12.3   298    17.3   1013.2    0.00 
 176   20:30   0.00   19.3     1   12.4   297    17.3   1013.2    0.00 
 176   20:40   0.00   19.5     1   12.3   296    16.1   1013.2    0.00 
 176   20:50   0.00   19.6     1   12.8   295    17.8   1013.2    0.00 
 176   21:00   0.00   19.7     0   12.2   296    16.7   1013.2    0.00 
 176   21:10   0.00   19.6     0   10.7   297    13.7   1013.5    0.00 
 176   21:20   0.00   19.5     0   10.4   296    14.5   1013.5    0.00 
 176   21:30   0.00   19.3     0   10.6   295    15.1   1013.5    0.00 
 176   21:40   0.00   19.1     1    9.7   295    13.0   1013.5    0.00 
 176   21:50   0.00   18.9     0    9.7   295    13.0   1013.5    0.00 
 176   22:00   0.00   18.5     0   10.0   293    15.1   1013.5    0.00 
 176   22:10   0.00   18.2     0   10.2   294    15.0   1013.5    0.00 
 176   22:20   0.00   17.7     0    8.9   291    12.3   1013.9    0.00 
 176   22:30   0.00   17.2     0    9.3   292    12.6   1013.5    0.00 
 176   22:40   0.00   16.6     0    8.9   293    13.0   1013.9    0.00 
 176   22:50   0.00   16.0     0    9.7   294    13.7   1013.9    0.00 
 176   23:00   0.00   15.5     0    9.9   294    12.6   1013.9    0.00 
 176   23:10   0.00   15.3     0    9.5   294    13.6   1013.9    0.00 
 176   23:20   0.00   15.3     0    8.7   293    11.9   1013.9    0.00 
 176   23:30   0.00   15.5     0    9.1   292    12.3   1013.9    0.00 
 176   23:40   0.00   15.7     0    9.5   292    13.7   1013.9    0.00 
 176   23:50   0.00   16.2     0   10.2   290    14.2   1013.9    0.00 
 177    0:00   0.00   16.3     0    9.5   288    13.7   1013.9    0.00 
 177    0:10   100.00  99999.0   99999  99999.0   99999   99999.0   99999.0   99999.00 
 177    0:20   100.00  99999.0   99999  99999.0   99999   99999.0   99999.0   99999.00 
 177    0:30   100.00  99999.0   99999  99999.0   99999   99999.0   99999.0   99999.00 
 177    0:40   100.00  99999.0   99999  99999.0   99999   99999.0   99999.0   99999.00 
 177    0:50   100.00  99999.0   99999  99999.0   99999   99999.0   99999.0   99999.00 
 177    1:00   100.00  99999.0   99999  99999.0   99999   99999.0   99999.0   99999.00 
 177    1:10   100.00  99999.0   99999  99999.0   99999   99999.0   99999.0   99999.00 
 177    1:20   100.00  99999.0   99999  99999.0   99999   99999.0   99999.0   99999.00 
 177    1:30   100.00  99999.0   99999  99999.0   99999   99999.0   99999.0   99999.00 
 177    1:40   100.00  99999.0   99999  99999.0   99999   99999.0   99999.0   99999.00 
 177    1:50   100.00  99999.0   99999  99999.0   99999   99999.0   99999.0   99999.00 
 177    2:00   100.00  99999.0   99999  99999.0   99999   99999.0   99999.0   99999.00 
 177    2:10   100.00  99999.0   99999  99999.0   99999   99999.0   99999.0   99999.00 
 177    2:20   100.00  99999.0   99999  99999.0   99999   99999.0   99999.0   99999.00 
 177    2:30   100.00  99999.0   99999  99999.0   99999   99999.0   99999.0   99999.00 
 177    2:40   100.00  99999.0   99999  99999.0   99999   99999.0   99999.0   99999.00 
 177    2:50   100.00  99999.0   99999  99999.0   99999   99999.0   99999.0   99999.00 
 177    3:00   100.00  99999.0   99999  99999.0   99999   99999.0   99999.0   99999.00 
 177    3:10   100.00  99999.0   99999  99999.0   99999   99999.0   99999.0   99999.00 
 177    3:20   100.00  99999.0   99999  99999.0   99999   99999.0   99999.0   99999.00 
 177    3:30   100.00  99999.0   99999  99999.0   99999   99999.0   99999.0   99999.00 
 177    3:40   100.00  99999.0   99999  99999.0   99999   99999.0   99999.0   99999.00 
 177    3:50   100.00  99999.0   99999  99999.0   99999   99999.0   99999.0   99999.00 
 177    4:00   100.00  99999.0   99999  99999.0   99999   99999.0   99999.0   99999.00 
 177    4:10   100.00  99999.0   99999  99999.0   99999   99999.0   99999.0   99999.00 
 177    4:20   100.00  99999.0   99999  99999.0   99999   99999.0   99999.0   99999.00 
 177    4:30   100.00  99999.0   99999  99999.0   99999   99999.0   99999.0   99999.00 
 177    4:40   100.00  99999.0   99999  99999.0   99999   99999.0   99999.0   99999.00 
 177    4:50   100.00  99999.0   99999  99999.0   99999   99999.0   99999.0   99999.00 
 177    5:00   100.00  99999.0   99999  99999.0   99999   99999.0   99999.0   99999.00 
 177    5:10   0.00   21.9     0    7.2   309    10.1   1013.5    0.00 
 177    5:20   0.01   22.1     0    7.0   299     9.6   1013.5    0.00 
 177    5:30   0.01   22.3     0    6.5   294     9.1   1013.5    0.00 
 177    5:40   0.01   22.5     0    6.2   295     9.1   1013.5    0.00 
 177    5:50   0.03   22.6     0    6.9   295     9.3   1013.5    0.00 
 177    6:00   0.04   22.7     1    7.2   295    10.2   1013.9    0.00 
 177    6:10   0.05   22.9     0    6.6   291    10.5   1013.9    0.00 
 177    6:20   0.06   23.2     1    6.7   291    10.8   1013.9    0.00 
 177    6:30   0.07   23.4     1    6.5   288     9.4   1014.2    0.00 
 177    6:40   0.08   23.6     1    6.9   284     9.4   1014.2    0.00 
 177    6:50   0.09   23.7     1    7.2   287     9.4   1014.2    0.00 
 177    7:00   0.11   23.9     1    7.6   287     9.9   1014.2    0.00 
 177    7:10   0.13   24.3     1    7.2   286     9.8   1014.6    0.00 
 177    7:20   0.13   24.7     1    7.5   288    10.0   1014.6    0.00 
 177    7:30   0.18   25.1     1    6.9   289    10.2   1014.6    0.00 
 177    7:40   0.19   25.9     1    9.4   290    12.4   1014.6    0.00 
 177    7:50   0.21   26.9     1    7.9   285    11.2   1014.6    0.00 
 177    8:00   0.24   27.7     1    7.4   281    10.0   1014.9    0.00 
 177    8:10   0.24   28.3     1    7.4   285    10.4   1014.9    0.00 
 177    8:20   0.30   29.0     1    7.3   285    10.4   1014.9    0.00 
 177    8:30   0.36   29.6     1    7.3   291    11.3   1014.9    0.00 
 177    8:40   0.35   30.0     1    7.5   277    11.7   1014.9    0.00 
 177    8:50   0.41   30.2     1    8.3   278    12.3   1015.2    0.00 
 177    9:00   0.43   30.7     1    9.4   279    12.3   1015.2    0.00 
 177    9:10   100.00  99999.0   99999  99999.0   99999   99999.0   99999.0   99999.00 
 177    9:20   100.00  99999.0   99999  99999.0   99999   99999.0   99999.0   99999.00 
 177    9:30   100.00  99999.0   99999  99999.0   99999   99999.0   99999.0   99999.00 
 177    9:40   100.00  99999.0   99999  99999.0   99999   99999.0   99999.0   99999.00 
 177    9:50   100.00  99999.0   99999  99999.0   99999   99999.0   99999.0   99999.00 
 177   10:00   100.00  99999.0   99999  99999.0   99999   99999.0   99999.0   99999.00 
 177   10:10   0.78   39.6     1   11.4   301    15.8   1015.2    0.00 
 177   10:20   0.79   40.7     1   12.3   305    17.8   1015.2    0.00 
 177   10:30   0.82   41.6     1   12.7   307    16.7   1015.6    0.00 
 177   10:40   0.84   42.6     1   12.4   299    18.2   1015.6    0.00 
 177   10:50   0.85   43.9     1   11.9   285    16.2   1015.6    0.00 
 177   11:00   0.86   44.3     1   12.2   280    16.7   1015.6    0.00 
 177   11:10   0.87   44.9     1   13.6   276    17.9   1015.2    0.00 
 177   11:20   0.88   45.1     1   14.7   274    19.1   1015.2    0.00 
 177   11:30   0.88   44.5     1   15.7   273    19.0   1015.2    0.00 
 177   11:40   0.89   44.5     1   16.3   272    19.4   1015.2    0.00 
 177   11:50   0.89   45.0     1   15.0   274    19.3   1015.2    0.00 
 177   12:00   0.89   46.2     1   12.8   260    17.5   1015.2    0.00 
 177   12:10   100.00  99999.0   99999  99999.0   99999   99999.0   99999.0   99999.00 
 177   12:20   100.00  99999.0   99999  99999.0   99999   99999.0   99999.0   99999.00 
 177   12:30   100.00  99999.0   99999  99999.0   99999   99999.0   99999.0   99999.00 
 177   12:40   100.00  99999.0   99999  99999.0   99999   99999.0   99999.0   99999.00 
 177   12:50   100.00  99999.0   99999  99999.0   99999   99999.0   99999.0   99999.00 
 177   13:00   0.89   46.4     1   11.2   260    15.6   1015.2    0.00 
 177   13:10   100.00  99999.0   99999  99999.0   99999   99999.0   99999.0   99999.00 
 177   13:20   100.00  99999.0   99999  99999.0   99999   99999.0   99999.0   99999.00 
 177   13:30   100.00  99999.0   99999  99999.0   99999   99999.0   99999.0   99999.00 
 177   13:40   100.00  99999.0   99999  99999.0   99999   99999.0   99999.0   99999.00 
 177   13:50   100.00  99999.0   99999  99999.0   99999   99999.0   99999.0   99999.00 
 177   14:00   100.00  99999.0   99999  99999.0   99999   99999.0   99999.0   99999.00 
 177   14:10   0.58   48.8     1   11.2   274    15.3   1015.2    0.00 
 177   14:20   0.69   48.9     1   11.8   273    16.4   1015.2    0.00 
 177   14:30   0.16   49.2     1   11.7   272    16.2   1015.2    0.00 
 177   14:40   0.15   49.0     1   12.1   277    15.5   1015.2    0.00 
 177   14:50   0.16   48.6     1   13.8   277    16.7   1015.2    0.00 
 177   15:00   0.59   47.9     1   14.2   274    18.0   1014.9    0.00 
 177   15:10   100.00  99999.0   99999  99999.0   99999   99999.0   99999.0   99999.00 
 177   15:20   100.00  99999.0   99999  99999.0   99999   99999.0   99999.0   99999.00 
 177   15:30   100.00  99999.0   99999  99999.0   99999   99999.0   99999.0   99999.00 
 177   15:40   100.00  99999.0   99999  99999.0   99999   99999.0   99999.0   99999.00 
 177   15:50   100.00  99999.0   99999  99999.0   99999   99999.0   99999.0   99999.00 
 177   16:00   100.00  99999.0   99999  99999.0   99999   99999.0   99999.0   99999.00 
 177   16:10   0.42   48.0     1   15.8   284    19.6   1014.2    0.00 
 177   16:20   0.53   48.2     1   14.3   284    19.4   1014.2    0.00 
 177   16:30   0.50   48.6     1   13.3   284    19.5   1014.2    0.00 
 177   16:40   0.47   48.3     1   13.6   286    19.6   1013.9    0.00 
 177   16:50   0.44   47.7     1   14.7   287    20.7   1013.9    0.00 
 177   17:00   0.42   47.7     1   13.7   285    18.3   1013.9    0.00 
 177   17:10   100.00  99999.0   99999  99999.0   99999   99999.0   99999.0   99999.00 
 177   17:20   100.00  99999.0   99999  99999.0   99999   99999.0   99999.0   99999.00 
 177   17:30   100.00  99999.0   99999  99999.0   99999   99999.0   99999.0   99999.00 
 177   17:40   100.00  99999.0   99999  99999.0   99999   99999.0   99999.0   99999.00 
 177   17:50   100.00  99999.0   99999  99999.0   99999   99999.0   99999.0   99999.00 
 177   18:00   100.00  99999.0   99999  99999.0   99999   99999.0   99999.0   99999.00 
 177   18:10   100.00  99999.0   99999  99999.0   99999   99999.0   99999.0   99999.00 
 177   18:20   100.00  99999.0   99999  99999.0   99999   99999.0   99999.0   99999.00 
 177   18:30   100.00  99999.0   99999  99999.0   99999   99999.0   99999.0   99999.00 
 177   18:40   100.00  99999.0   99999  99999.0   99999   99999.0   99999.0   99999.00 
 177   18:50   100.00  99999.0   99999  99999.0   99999   99999.0   99999.0   99999.00 
 177   19:00   0.01   44.1     0   15.0   287    19.9   1013.2    0.00 
 177   19:10   0.01   43.5     0   14.8   290    18.1   1013.2    0.00 
 177   19:20   0.01   42.9     0   14.2   289    18.3   1013.2    0.00 
 177   19:30   0.00   42.4     0   14.2   289    18.3   1012.9    0.00 
 177   19:40   0.00   41.8     0   14.4   290    18.4   1012.9    0.00 
 177   19:50   0.00   41.3     0   13.9   292    18.5   1012.9    0.00 
 177   20:00   0.00   40.9     0   13.3   292    18.3   1012.9    0.00 

Return to Bodega Marine Reserve graphs page.


Western Regional Climate Center,wrcc@dri.edu